sensor_id;sensor_type;location;lat;lon;timestamp;pressure;altitude;pressure_sealevel;temperature;humidity
73242;BME280;65659;49.234;-2.094;2024-03-02T00:01:25;97947.63;;;8.53;50.03
73242;BME280;65659;49.234;-2.094;2024-03-02T00:03:51;97953.01;;;8.59;50.00
73242;BME280;65659;49.234;-2.094;2024-03-02T00:06:19;97948.29;;;8.46;49.95
73242;BME280;65659;49.234;-2.094;2024-03-02T00:08:41;97941.97;;;8.53;49.82
73242;BME280;65659;49.234;-2.094;2024-03-02T00:11:06;97935.42;;;8.57;49.74
73242;BME280;65659;49.234;-2.094;2024-03-02T00:13:31;97931.56;;;8.65;49.89
73242;BME280;65659;49.234;-2.094;2024-03-02T00:15:58;97936.65;;;8.49;49.99
73242;BME280;65659;49.234;-2.094;2024-03-02T00:18:25;97928.95;;;8.89;49.74
73242;BME280;65659;49.234;-2.094;2024-03-02T00:20:47;97927.58;;;8.69;49.54
73242;BME280;65659;49.234;-2.094;2024-03-02T00:23:16;97925.43;;;8.68;49.71
73242;BME280;65659;49.234;-2.094;2024-03-02T00:25:39;97922.88;;;8.80;49.49
73242;BME280;65659;49.234;-2.094;2024-03-02T00:28:02;97924.87;;;8.74;49.52
73242;BME280;65659;49.234;-2.094;2024-03-02T00:30:41;97926.91;;;8.78;49.45
73242;BME280;65659;49.234;-2.094;2024-03-02T00:32:52;97913.38;;;8.69;49.21
73242;BME280;65659;49.234;-2.094;2024-03-02T00:35:22;97917.81;;;8.88;49.31
73242;BME280;65659;49.234;-2.094;2024-03-02T00:37:42;97906.66;;;8.96;49.18
73242;BME280;65659;49.234;-2.094;2024-03-02T00:40:08;97900.93;;;8.57;49.44
73242;BME280;65659;49.234;-2.094;2024-03-02T00:42:33;97904.99;;;8.92;49.38
73242;BME280;65659;49.234;-2.094;2024-03-02T00:44:59;97891.47;;;8.99;49.32
73242;BME280;65659;49.234;-2.094;2024-03-02T00:47:23;97897.71;;;8.67;49.31
73242;BME280;65659;49.234;-2.094;2024-03-02T00:49:50;97893.84;;;8.80;49.32
73242;BME280;65659;49.234;-2.094;2024-03-02T00:52:15;97884.54;;;8.76;49.23
73242;BME280;65659;49.234;-2.094;2024-03-02T00:54:40;97870.44;;;8.86;49.35
73242;BME280;65659;49.234;-2.094;2024-03-02T00:57:05;97868.50;;;8.79;49.11
73242;BME280;65659;49.234;-2.094;2024-03-02T00:59:30;97865.31;;;8.63;49.60
73242;BME280;65659;49.234;-2.094;2024-03-02T01:01:55;97859.47;;;8.74;49.32
73242;BME280;65659;49.234;-2.094;2024-03-02T01:04:20;97858.13;;;8.68;49.36
73242;BME280;65659;49.234;-2.094;2024-03-02T01:06:45;97849.06;;;9.26;49.00
73242;BME280;65659;49.234;-2.094;2024-03-02T01:09:11;97850.24;;;9.16;49.12
73242;BME280;65659;49.234;-2.094;2024-03-02T01:11:36;97851.65;;;9.12;49.31
73242;BME280;65659;49.234;-2.094;2024-03-02T01:14:02;97854.07;;;8.65;49.48
73242;BME280;65659;49.234;-2.094;2024-03-02T01:16:26;97844.78;;;9.22;49.46
73242;BME280;65659;49.234;-2.094;2024-03-02T01:18:52;97845.47;;;9.04;49.41
73242;BME280;65659;49.234;-2.094;2024-03-02T01:21:17;97838.72;;;8.94;49.51
73242;BME280;65659;49.234;-2.094;2024-03-02T01:23:42;97821.50;;;9.47;49.62
73242;BME280;65659;49.234;-2.094;2024-03-02T01:26:07;97832.88;;;9.04;49.52
73242;BME280;65659;49.234;-2.094;2024-03-02T01:28:32;97826.38;;;9.52;49.66
73242;BME280;65659;49.234;-2.094;2024-03-02T01:30:57;97823.99;;;9.51;49.56
73242;BME280;65659;49.234;-2.094;2024-03-02T01:33:22;97823.22;;;9.32;49.41
73242;BME280;65659;49.234;-2.094;2024-03-02T01:35:47;97820.21;;;9.47;49.14
73242;BME280;65659;49.234;-2.094;2024-03-02T01:38:12;97833.63;;;9.53;48.94
73242;BME280;65659;49.234;-2.094;2024-03-02T01:40:38;97829.27;;;9.03;48.98
73242;BME280;65659;49.234;-2.094;2024-03-02T01:43:03;97814.82;;;9.33;48.91
73242;BME280;65659;49.234;-2.094;2024-03-02T01:45:29;97828.84;;;9.16;48.82
73242;BME280;65659;49.234;-2.094;2024-03-02T01:47:53;97810.68;;;9.26;48.49
73242;BME280;65659;49.234;-2.094;2024-03-02T01:50:25;97807.69;;;9.16;48.52
73242;BME280;65659;49.234;-2.094;2024-03-02T01:52:43;97820.77;;;9.12;48.52
73242;BME280;65659;49.234;-2.094;2024-03-02T01:55:08;97806.30;;;9.67;47.95
73242;BME280;65659;49.234;-2.094;2024-03-02T01:57:34;97808.74;;;9.69;47.80
73242;BME280;65659;49.234;-2.094;2024-03-02T02:00:00;97794.60;;;9.67;48.05
73242;BME280;65659;49.234;-2.094;2024-03-02T02:02:25;97814.54;;;9.48;48.61
73242;BME280;65659;49.234;-2.094;2024-03-02T02:04:50;97817.21;;;9.18;48.76
73242;BME280;65659;49.234;-2.094;2024-03-02T02:07:15;97810.71;;;9.20;48.81
73242;BME280;65659;49.234;-2.094;2024-03-02T02:09:41;97811.52;;;8.92;49.35
73242;BME280;65659;49.234;-2.094;2024-03-02T02:12:06;97807.30;;;9.28;49.04
73242;BME280;65659;49.234;-2.094;2024-03-02T02:14:31;97795.90;;;9.76;48.04
73242;BME280;65659;49.234;-2.094;2024-03-02T02:16:56;97796.87;;;9.23;48.06
73242;BME280;65659;49.234;-2.094;2024-03-02T02:19:21;97804.02;;;8.93;48.55
73242;BME280;65659;49.234;-2.094;2024-03-02T02:21:46;97795.14;;;9.13;48.06
73242;BME280;65659;49.234;-2.094;2024-03-02T02:24:11;97799.49;;;9.12;47.53
73242;BME280;65659;49.234;-2.094;2024-03-02T02:26:36;97807.39;;;9.15;47.42
73242;BME280;65659;49.234;-2.094;2024-03-02T02:29:01;97801.46;;;9.43;47.44
73242;BME280;65659;49.234;-2.094;2024-03-02T02:31:28;97812.65;;;9.20;47.55
73242;BME280;65659;49.234;-2.094;2024-03-02T02:33:52;97803.76;;;9.60;47.41
73242;BME280;65659;49.234;-2.094;2024-03-02T02:36:17;97808.27;;;9.23;47.51
73242;BME280;65659;49.234;-2.094;2024-03-02T02:38:45;97803.81;;;9.26;47.65
73242;BME280;65659;49.234;-2.094;2024-03-02T02:41:08;97803.18;;;9.10;47.61
73242;BME280;65659;49.234;-2.094;2024-03-02T02:43:32;97802.69;;;9.32;47.58
73242;BME280;65659;49.234;-2.094;2024-03-02T02:45:58;97788.36;;;9.06;47.53
73242;BME280;65659;49.234;-2.094;2024-03-02T02:48:23;97779.69;;;9.72;47.19
73242;BME280;65659;49.234;-2.094;2024-03-02T02:50:48;97785.50;;;9.79;47.12
73242;BME280;65659;49.234;-2.094;2024-03-02T02:53:13;97784.87;;;9.47;47.83
73242;BME280;65659;49.234;-2.094;2024-03-02T02:55:39;97774.46;;;9.17;47.43
73242;BME280;65659;49.234;-2.094;2024-03-02T02:58:04;97782.54;;;9.31;47.73
73242;BME280;65659;49.234;-2.094;2024-03-02T03:00:29;97774.29;;;9.65;47.49
73242;BME280;65659;49.234;-2.094;2024-03-02T03:02:54;97776.37;;;9.38;47.45
73242;BME280;65659;49.234;-2.094;2024-03-02T03:05:20;97776.75;;;9.17;47.50
73242;BME280;65659;49.234;-2.094;2024-03-02T03:07:44;97772.11;;;9.60;47.68
73242;BME280;65659;49.234;-2.094;2024-03-02T03:10:09;97770.67;;;9.61;48.11
73242;BME280;65659;49.234;-2.094;2024-03-02T03:12:34;97770.01;;;9.70;48.23
73242;BME280;65659;49.234;-2.094;2024-03-02T03:14:59;97768.39;;;9.23;48.20
73242;BME280;65659;49.234;-2.094;2024-03-02T03:17:24;97775.17;;;9.28;47.96
73242;BME280;65659;49.234;-2.094;2024-03-02T03:19:49;97766.45;;;9.33;47.75
73242;BME280;65659;49.234;-2.094;2024-03-02T03:22:14;97768.22;;;9.37;47.75
73242;BME280;65659;49.234;-2.094;2024-03-02T03:24:39;97761.32;;;9.44;48.12
73242;BME280;65659;49.234;-2.094;2024-03-02T03:27:05;97768.26;;;9.19;48.23
73242;BME280;65659;49.234;-2.094;2024-03-02T03:29:29;97767.12;;;9.27;48.14
73242;BME280;65659;49.234;-2.094;2024-03-02T03:31:55;97760.43;;;9.10;48.19
73242;BME280;65659;49.234;-2.094;2024-03-02T03:34:20;97765.32;;;9.39;48.04
73242;BME280;65659;49.234;-2.094;2024-03-02T03:36:45;97767.90;;;9.17;48.55
73242;BME280;65659;49.234;-2.094;2024-03-02T03:39:10;97762.82;;;9.08;48.51
73242;BME280;65659;49.234;-2.094;2024-03-02T03:41:36;97754.37;;;9.39;48.31
73242;BME280;65659;49.234;-2.094;2024-03-02T03:44:00;97755.53;;;9.70;48.11
73242;BME280;65659;49.234;-2.094;2024-03-02T03:46:26;97763.88;;;9.23;48.14
73242;BME280;65659;49.234;-2.094;2024-03-02T03:48:51;97749.00;;;9.45;48.08
73242;BME280;65659;49.234;-2.094;2024-03-02T03:51:16;97755.85;;;9.17;48.13
73242;BME280;65659;49.234;-2.094;2024-03-02T03:53:41;97753.30;;;9.21;48.19
73242;BME280;65659;49.234;-2.094;2024-03-02T03:56:06;97755.87;;;9.17;48.35
73242;BME280;65659;49.234;-2.094;2024-03-02T03:58:31;97765.45;;;9.49;48.37
73242;BME280;65659;49.234;-2.094;2024-03-02T04:00:56;97760.85;;;9.29;48.10
73242;BME280;65659;49.234;-2.094;2024-03-02T04:03:21;97758.70;;;9.30;48.09
73242;BME280;65659;49.234;-2.094;2024-03-02T04:05:46;97763.49;;;9.54;48.03
73242;BME280;65659;49.234;-2.094;2024-03-02T04:08:11;97759.51;;;9.18;48.39
73242;BME280;65659;49.234;-2.094;2024-03-02T04:10:36;97750.18;;;9.39;48.38
73242;BME280;65659;49.234;-2.094;2024-03-02T04:13:02;97760.14;;;9.21;48.38
73242;BME280;65659;49.234;-2.094;2024-03-02T04:15:27;97756.63;;;9.76;48.37
73242;BME280;65659;49.234;-2.094;2024-03-02T04:17:52;97754.60;;;9.49;48.75
73242;BME280;65659;49.234;-2.094;2024-03-02T04:20:17;97758.39;;;8.95;48.83
73242;BME280;65659;49.234;-2.094;2024-03-02T04:22:42;97763.37;;;8.93;48.70
73242;BME280;65659;49.234;-2.094;2024-03-02T04:25:08;97773.18;;;9.20;48.51
73242;BME280;65659;49.234;-2.094;2024-03-02T04:27:32;97769.46;;;9.13;48.70
73242;BME280;65659;49.234;-2.094;2024-03-02T04:29:58;97775.33;;;8.90;48.96
73242;BME280;65659;49.234;-2.094;2024-03-02T04:32:23;97775.00;;;9.26;49.52
73242;BME280;65659;49.234;-2.094;2024-03-02T04:34:48;97775.97;;;9.14;49.50
73242;BME280;65659;49.234;-2.094;2024-03-02T04:37:13;97781.31;;;8.65;49.65
73242;BME280;65659;49.234;-2.094;2024-03-02T04:39:38;97789.96;;;9.23;49.32
73242;BME280;65659;49.234;-2.094;2024-03-02T04:42:04;97793.12;;;8.94;49.44
73242;BME280;65659;49.234;-2.094;2024-03-02T04:44:29;97776.84;;;9.23;49.54
73242;BME280;65659;49.234;-2.094;2024-03-02T04:46:54;97790.95;;;9.22;49.55
73242;BME280;65659;49.234;-2.094;2024-03-02T04:49:19;97793.60;;;8.98;49.56
73242;BME280;65659;49.234;-2.094;2024-03-02T04:51:44;97792.01;;;9.19;49.70
73242;BME280;65659;49.234;-2.094;2024-03-02T04:54:09;97801.17;;;8.60;49.68
73242;BME280;65659;49.234;-2.094;2024-03-02T04:56:35;97790.25;;;8.99;49.20
73242;BME280;65659;49.234;-2.094;2024-03-02T04:59:00;97794.93;;;8.72;49.25
73242;BME280;65659;49.234;-2.094;2024-03-02T05:01:25;97794.25;;;9.10;49.49
73242;BME280;65659;49.234;-2.094;2024-03-02T05:03:50;97789.35;;;9.04;49.54
73242;BME280;65659;49.234;-2.094;2024-03-02T05:06:15;97791.83;;;8.66;49.39
73242;BME280;65659;49.234;-2.094;2024-03-02T05:08:40;97793.78;;;8.95;49.76
73242;BME280;65659;49.234;-2.094;2024-03-02T05:11:05;97793.09;;;8.91;49.43
73242;BME280;65659;49.234;-2.094;2024-03-02T05:13:31;97794.39;;;9.06;49.63
73242;BME280;65659;49.234;-2.094;2024-03-02T05:15:56;97793.34;;;8.51;49.68
73242;BME280;65659;49.234;-2.094;2024-03-02T05:18:21;97794.00;;;9.09;49.32
73242;BME280;65659;49.234;-2.094;2024-03-02T05:20:46;97800.27;;;8.90;49.39
73242;BME280;65659;49.234;-2.094;2024-03-02T05:23:11;97793.60;;;9.22;49.15
73242;BME280;65659;49.234;-2.094;2024-03-02T05:25:36;97804.16;;;9.25;49.31
73242;BME280;65659;49.234;-2.094;2024-03-02T05:28:01;97797.92;;;8.97;49.25
73242;BME280;65659;49.234;-2.094;2024-03-02T05:30:27;97793.22;;;8.90;49.10
73242;BME280;65659;49.234;-2.094;2024-03-02T05:32:52;97801.26;;;9.21;49.07
73242;BME280;65659;49.234;-2.094;2024-03-02T05:35:17;97798.99;;;9.18;49.30
73242;BME280;65659;49.234;-2.094;2024-03-02T05:37:42;97800.05;;;9.44;49.34
73242;BME280;65659;49.234;-2.094;2024-03-02T05:40:08;97807.68;;;9.17;49.43
73242;BME280;65659;49.234;-2.094;2024-03-02T05:42:32;97810.64;;;9.30;49.35
73242;BME280;65659;49.234;-2.094;2024-03-02T05:44:57;97814.40;;;8.99;49.03
73242;BME280;65659;49.234;-2.094;2024-03-02T05:47:22;97810.70;;;9.38;49.06
73242;BME280;65659;49.234;-2.094;2024-03-02T05:49:47;97811.96;;;9.23;49.47
73242;BME280;65659;49.234;-2.094;2024-03-02T05:52:13;97815.46;;;9.09;49.35
73242;BME280;65659;49.234;-2.094;2024-03-02T05:54:38;97817.42;;;9.53;49.41
73242;BME280;65659;49.234;-2.094;2024-03-02T05:57:03;97822.69;;;9.15;49.07
73242;BME280;65659;49.234;-2.094;2024-03-02T05:59:28;97821.57;;;9.54;49.22
73242;BME280;65659;49.234;-2.094;2024-03-02T06:01:54;97825.93;;;9.22;49.36
73242;BME280;65659;49.234;-2.094;2024-03-02T06:04:18;97825.68;;;9.13;49.20
73242;BME280;65659;49.234;-2.094;2024-03-02T06:06:43;97830.43;;;9.09;49.23
73242;BME280;65659;49.234;-2.094;2024-03-02T06:09:09;97836.82;;;9.10;49.17
73242;BME280;65659;49.234;-2.094;2024-03-02T06:11:34;97838.09;;;9.38;49.21
73242;BME280;65659;49.234;-2.094;2024-03-02T06:13:59;97839.96;;;9.07;49.47
73242;BME280;65659;49.234;-2.094;2024-03-02T06:16:24;97840.34;;;9.53;49.62
73242;BME280;65659;49.234;-2.094;2024-03-02T06:18:50;97835.51;;;9.51;49.53
73242;BME280;65659;49.234;-2.094;2024-03-02T06:21:15;97832.07;;;9.03;49.53
73242;BME280;65659;49.234;-2.094;2024-03-02T06:23:40;97840.63;;;9.27;49.57
73242;BME280;65659;49.234;-2.094;2024-03-02T06:26:06;97843.72;;;9.04;49.61
73242;BME280;65659;49.234;-2.094;2024-03-02T06:28:31;97836.28;;;9.16;49.44
73242;BME280;65659;49.234;-2.094;2024-03-02T06:30:56;97836.48;;;9.03;49.75
73242;BME280;65659;49.234;-2.094;2024-03-02T06:33:21;97843.68;;;9.35;49.63
73242;BME280;65659;49.234;-2.094;2024-03-02T06:35:46;97839.66;;;9.26;49.29
73242;BME280;65659;49.234;-2.094;2024-03-02T06:38:12;97852.65;;;9.18;49.41
73242;BME280;65659;49.234;-2.094;2024-03-02T06:40:37;97862.52;;;8.97;50.10
73242;BME280;65659;49.234;-2.094;2024-03-02T06:43:02;97871.53;;;8.73;50.57
73242;BME280;65659;49.234;-2.094;2024-03-02T06:45:27;97871.92;;;8.61;50.49
73242;BME280;65659;49.234;-2.094;2024-03-02T06:47:53;97881.13;;;9.09;50.24
73242;BME280;65659;49.234;-2.094;2024-03-02T06:50:17;97878.03;;;8.90;50.67
73242;BME280;65659;49.234;-2.094;2024-03-02T06:52:42;97878.00;;;8.61;50.90
73242;BME280;65659;49.234;-2.094;2024-03-02T06:55:08;97881.87;;;8.24;51.53
73242;BME280;65659;49.234;-2.094;2024-03-02T06:57:32;97888.08;;;8.84;51.74
73242;BME280;65659;49.234;-2.094;2024-03-02T06:59:57;97898.66;;;8.60;52.42
73242;BME280;65659;49.234;-2.094;2024-03-02T07:02:23;97899.48;;;8.53;52.77
73242;BME280;65659;49.234;-2.094;2024-03-02T07:04:48;97901.88;;;8.62;52.48
73242;BME280;65659;49.234;-2.094;2024-03-02T07:07:19;97896.09;;;8.52;52.41
73242;BME280;65659;49.234;-2.094;2024-03-02T07:09:38;97903.61;;;8.44;52.01
73242;BME280;65659;49.234;-2.094;2024-03-02T07:12:03;97902.52;;;8.39;51.90
73242;BME280;65659;49.234;-2.094;2024-03-02T07:14:28;97903.48;;;8.14;51.87
73242;BME280;65659;49.234;-2.094;2024-03-02T07:16:54;97901.39;;;8.51;51.73
73242;BME280;65659;49.234;-2.094;2024-03-02T07:19:18;97908.26;;;8.12;51.68
73242;BME280;65659;49.234;-2.094;2024-03-02T07:21:44;97916.60;;;8.00;51.95
73242;BME280;65659;49.234;-2.094;2024-03-02T07:24:09;97916.85;;;8.57;51.98
73242;BME280;65659;49.234;-2.094;2024-03-02T07:26:34;97910.26;;;8.19;52.27
73242;BME280;65659;49.234;-2.094;2024-03-02T07:28:59;97912.81;;;8.00;52.43
73242;BME280;65659;49.234;-2.094;2024-03-02T07:31:24;97915.91;;;8.29;52.52
73242;BME280;65659;49.234;-2.094;2024-03-02T07:33:50;97924.11;;;8.25;52.74
73242;BME280;65659;49.234;-2.094;2024-03-02T07:36:15;97927.73;;;8.19;52.91
73242;BME280;65659;49.234;-2.094;2024-03-02T07:38:40;97929.65;;;8.03;53.16
73242;BME280;65659;49.234;-2.094;2024-03-02T07:41:05;97929.50;;;8.26;53.49
73242;BME280;65659;49.234;-2.094;2024-03-02T07:43:30;97930.07;;;8.38;53.41
73242;BME280;65659;49.234;-2.094;2024-03-02T07:45:55;97943.80;;;8.31;53.66
73242;BME280;65659;49.234;-2.094;2024-03-02T07:48:20;97938.23;;;8.15;54.01
73242;BME280;65659;49.234;-2.094;2024-03-02T07:50:45;97938.51;;;8.30;53.67
73242;BME280;65659;49.234;-2.094;2024-03-02T07:53:10;97943.38;;;8.31;53.56
73242;BME280;65659;49.234;-2.094;2024-03-02T07:55:36;97946.92;;;8.33;53.30
73242;BME280;65659;49.234;-2.094;2024-03-02T07:58:01;97956.29;;;8.23;52.78
73242;BME280;65659;49.234;-2.094;2024-03-02T08:00:26;97957.44;;;8.42;52.80
73242;BME280;65659;49.234;-2.094;2024-03-02T08:02:52;97956.70;;;7.90;52.68
73242;BME280;65659;49.234;-2.094;2024-03-02T08:05:16;97958.96;;;8.48;52.70
73242;BME280;65659;49.234;-2.094;2024-03-02T08:07:42;97967.75;;;8.21;52.98
73242;BME280;65659;49.234;-2.094;2024-03-02T08:10:08;97970.10;;;8.58;52.85
73242;BME280;65659;49.234;-2.094;2024-03-02T08:12:32;97971.03;;;8.41;52.96
73242;BME280;65659;49.234;-2.094;2024-03-02T08:14:57;97971.19;;;8.69;53.14
73242;BME280;65659;49.234;-2.094;2024-03-02T08:17:22;97973.37;;;8.72;53.34
73242;BME280;65659;49.234;-2.094;2024-03-02T08:19:47;97974.38;;;8.70;53.52
73242;BME280;65659;49.234;-2.094;2024-03-02T08:22:13;97981.94;;;8.80;53.50
73242;BME280;65659;49.234;-2.094;2024-03-02T08:24:38;97981.13;;;8.80;53.55
73242;BME280;65659;49.234;-2.094;2024-03-02T08:27:03;97986.74;;;8.43;53.42
73242;BME280;65659;49.234;-2.094;2024-03-02T08:29:28;97991.69;;;8.76;53.31
73242;BME280;65659;49.234;-2.094;2024-03-02T08:31:54;97994.34;;;8.46;53.40
73242;BME280;65659;49.234;-2.094;2024-03-02T08:34:18;98000.76;;;9.10;53.08
73242;BME280;65659;49.234;-2.094;2024-03-02T08:36:43;98022.27;;;8.60;53.26
73242;BME280;65659;49.234;-2.094;2024-03-02T08:39:09;98024.96;;;8.49;53.17
73242;BME280;65659;49.234;-2.094;2024-03-02T08:41:33;98030.19;;;8.63;53.33
73242;BME280;65659;49.234;-2.094;2024-03-02T08:43:59;98037.94;;;8.54;53.44
73242;BME280;65659;49.234;-2.094;2024-03-02T08:46:24;98044.31;;;8.74;53.65
73242;BME280;65659;49.234;-2.094;2024-03-02T08:48:49;98044.28;;;8.29;53.61
73242;BME280;65659;49.234;-2.094;2024-03-02T08:53:39;98041.43;;;8.79;53.19
73242;BME280;65659;49.234;-2.094;2024-03-02T08:56:05;98045.06;;;8.51;53.15
73242;BME280;65659;49.234;-2.094;2024-03-02T08:58:29;98051.80;;;8.72;53.14
73242;BME280;65659;49.234;-2.094;2024-03-02T09:00:55;98058.18;;;8.49;53.17
73242;BME280;65659;49.234;-2.094;2024-03-02T09:03:19;98060.58;;;8.71;52.94
73242;BME280;65659;49.234;-2.094;2024-03-02T09:05:44;98061.64;;;8.74;52.84
73242;BME280;65659;49.234;-2.094;2024-03-02T09:08:09;98066.76;;;8.80;52.79
73242;BME280;65659;49.234;-2.094;2024-03-02T09:10:35;98066.78;;;8.67;52.62
73242;BME280;65659;49.234;-2.094;2024-03-02T09:13:00;98069.16;;;9.29;52.41
73242;BME280;65659;49.234;-2.094;2024-03-02T09:15:25;98069.61;;;9.24;52.31
73242;BME280;65659;49.234;-2.094;2024-03-02T09:17:50;98074.02;;;9.11;52.14
73242;BME280;65659;49.234;-2.094;2024-03-02T09:20:15;98076.58;;;9.11;52.12
73242;BME280;65659;49.234;-2.094;2024-03-02T09:22:40;98078.60;;;9.57;52.02
73242;BME280;65659;49.234;-2.094;2024-03-02T09:25:06;98080.16;;;9.05;52.00
73242;BME280;65659;49.234;-2.094;2024-03-02T09:27:31;98081.49;;;9.08;51.60
73242;BME280;65659;49.234;-2.094;2024-03-02T09:29:56;98086.17;;;8.91;51.39
73242;BME280;65659;49.234;-2.094;2024-03-02T09:32:21;98089.14;;;9.12;50.86
73242;BME280;65659;49.234;-2.094;2024-03-02T09:34:46;98087.21;;;9.25;50.70
73242;BME280;65659;49.234;-2.094;2024-03-02T09:37:11;98082.96;;;9.22;50.04
73242;BME280;65659;49.234;-2.094;2024-03-02T09:39:36;98083.03;;;9.36;49.93
73242;BME280;65659;49.234;-2.094;2024-03-02T09:42:02;98085.74;;;9.34;49.78
73242;BME280;65659;49.234;-2.094;2024-03-02T09:44:26;98089.22;;;9.44;49.12
73242;BME280;65659;49.234;-2.094;2024-03-02T09:46:52;98092.31;;;9.24;48.21
73242;BME280;65659;49.234;-2.094;2024-03-02T09:49:17;98092.31;;;9.34;47.83
73242;BME280;65659;49.234;-2.094;2024-03-02T09:51:47;98097.57;;;9.52;47.45
73242;BME280;65659;49.234;-2.094;2024-03-02T09:54:08;98101.14;;;9.52;47.41
73242;BME280;65659;49.234;-2.094;2024-03-02T09:56:33;98097.66;;;9.44;47.21
73242;BME280;65659;49.234;-2.094;2024-03-02T09:58:58;98097.02;;;9.59;46.24
73242;BME280;65659;49.234;-2.094;2024-03-02T10:01:28;98102.34;;;9.56;46.16
73242;BME280;65659;49.234;-2.094;2024-03-02T10:03:49;98101.48;;;9.69;45.81
73242;BME280;65659;49.234;-2.094;2024-03-02T10:06:20;98098.85;;;9.76;45.70
73242;BME280;65659;49.234;-2.094;2024-03-02T10:08:43;98100.33;;;9.85;45.29
73242;BME280;65659;49.234;-2.094;2024-03-02T10:11:03;98101.19;;;9.91;45.46
73242;BME280;65659;49.234;-2.094;2024-03-02T10:13:28;98106.99;;;9.88;44.94
73242;BME280;65659;49.234;-2.094;2024-03-02T10:15:54;98108.11;;;9.90;44.09
73242;BME280;65659;49.234;-2.094;2024-03-02T10:18:26;98111.06;;;9.93;43.90
73242;BME280;65659;49.234;-2.094;2024-03-02T10:20:43;98112.07;;;10.04;43.59
73242;BME280;65659;49.234;-2.094;2024-03-02T10:23:13;98118.72;;;10.18;43.55
73242;BME280;65659;49.234;-2.094;2024-03-02T10:25:34;98114.53;;;10.24;43.85
73242;BME280;65659;49.234;-2.094;2024-03-02T10:27:59;98114.84;;;10.08;43.73
73242;BME280;65659;49.234;-2.094;2024-03-02T10:30:23;98114.02;;;10.63;43.34
73242;BME280;65659;49.234;-2.094;2024-03-02T10:32:49;98124.03;;;10.18;43.01
73242;BME280;65659;49.234;-2.094;2024-03-02T10:35:15;98121.16;;;10.79;42.69
73242;BME280;65659;49.234;-2.094;2024-03-02T10:37:39;98122.22;;;10.55;42.78
73242;BME280;65659;49.234;-2.094;2024-03-02T10:40:05;98120.64;;;10.57;42.25
73242;BME280;65659;49.234;-2.094;2024-03-02T10:42:29;98132.76;;;10.75;41.98
73242;BME280;65659;49.234;-2.094;2024-03-02T10:44:54;98127.60;;;10.84;41.62
73242;BME280;65659;49.234;-2.094;2024-03-02T10:47:20;98137.49;;;10.34;41.07
73242;BME280;65659;49.234;-2.094;2024-03-02T10:49:45;98137.32;;;10.59;40.76
73242;BME280;65659;49.234;-2.094;2024-03-02T10:52:09;98124.99;;;10.70;41.25
73242;BME280;65659;49.234;-2.094;2024-03-02T10:54:35;98134.80;;;10.70;40.43
73242;BME280;65659;49.234;-2.094;2024-03-02T10:57:00;98135.18;;;10.85;40.39
73242;BME280;65659;49.234;-2.094;2024-03-02T10:59:28;98146.46;;;10.78;40.50
73242;BME280;65659;49.234;-2.094;2024-03-02T11:01:52;98140.10;;;11.03;40.42
73242;BME280;65659;49.234;-2.094;2024-03-02T11:04:18;98150.31;;;11.06;40.87
73242;BME280;65659;49.234;-2.094;2024-03-02T11:06:47;98138.08;;;11.67;39.54
73242;BME280;65659;49.234;-2.094;2024-03-02T11:09:07;98145.13;;;11.34;39.24
73242;BME280;65659;49.234;-2.094;2024-03-02T11:11:33;98150.72;;;11.13;40.07
73242;BME280;65659;49.234;-2.094;2024-03-02T11:13:58;98151.41;;;11.33;39.96
73242;BME280;65659;49.234;-2.094;2024-03-02T11:16:30;98145.64;;;11.10;40.10
73242;BME280;65659;49.234;-2.094;2024-03-02T11:18:48;98153.37;;;11.41;40.52
73242;BME280;65659;49.234;-2.094;2024-03-02T11:21:12;98161.00;;;11.48;40.31
73242;BME280;65659;49.234;-2.094;2024-03-02T11:23:38;98161.05;;;11.46;40.05
73242;BME280;65659;49.234;-2.094;2024-03-02T11:26:17;98163.23;;;11.49;40.04
73242;BME280;65659;49.234;-2.094;2024-03-02T11:28:35;98162.40;;;11.52;40.17
73242;BME280;65659;49.234;-2.094;2024-03-02T11:30:55;98161.72;;;11.32;39.82
73242;BME280;65659;49.234;-2.094;2024-03-02T11:33:24;98158.65;;;11.46;39.69
73242;BME280;65659;49.234;-2.094;2024-03-02T11:35:46;98157.51;;;11.39;39.77
73242;BME280;65659;49.234;-2.094;2024-03-02T11:38:11;98166.48;;;11.51;39.84
73242;BME280;65659;49.234;-2.094;2024-03-02T11:40:39;98163.99;;;11.73;39.71
73242;BME280;65659;49.234;-2.094;2024-03-02T11:43:02;98163.11;;;11.68;39.25
73242;BME280;65659;49.234;-2.094;2024-03-02T11:45:28;98168.33;;;11.65;39.35
73242;BME280;65659;49.234;-2.094;2024-03-02T11:47:55;98176.54;;;11.59;39.33
73242;BME280;65659;49.234;-2.094;2024-03-02T11:50:28;98174.37;;;11.81;39.48
73242;BME280;65659;49.234;-2.094;2024-03-02T11:52:45;98175.91;;;11.99;39.52
73242;BME280;65659;49.234;-2.094;2024-03-02T11:55:10;98188.08;;;11.91;39.44
73242;BME280;65659;49.234;-2.094;2024-03-02T11:57:35;98184.13;;;12.45;39.20
73242;BME280;65659;49.234;-2.094;2024-03-02T12:00:00;98191.80;;;12.37;39.42
73242;BME280;65659;49.234;-2.094;2024-03-02T12:02:25;98183.86;;;12.29;39.36
73242;BME280;65659;49.234;-2.094;2024-03-02T12:04:51;98188.86;;;12.67;38.92
73242;BME280;65659;49.234;-2.094;2024-03-02T12:07:19;98184.93;;;12.36;39.05
73242;BME280;65659;49.234;-2.094;2024-03-02T12:09:42;98188.27;;;12.42;39.24
73242;BME280;65659;49.234;-2.094;2024-03-02T12:12:08;98184.47;;;12.38;38.71
73242;BME280;65659;49.234;-2.094;2024-03-02T12:14:35;98185.39;;;12.08;38.21
73242;BME280;65659;49.234;-2.094;2024-03-02T12:16:58;98193.00;;;11.90;38.12
73242;BME280;65659;49.234;-2.094;2024-03-02T12:19:24;98187.58;;;11.89;37.34
73242;BME280;65659;49.234;-2.094;2024-03-02T12:21:49;98184.69;;;12.03;37.83
73242;BME280;65659;49.234;-2.094;2024-03-02T12:24:15;98182.57;;;12.10;37.79
73242;BME280;65659;49.234;-2.094;2024-03-02T12:26:40;98182.11;;;12.36;37.00
73242;BME280;65659;49.234;-2.094;2024-03-02T12:29:06;98184.03;;;12.53;36.78
73242;BME280;65659;49.234;-2.094;2024-03-02T12:31:31;98187.39;;;12.36;36.55
73242;BME280;65659;49.234;-2.094;2024-03-02T12:33:56;98182.21;;;12.49;36.75
73242;BME280;65659;49.234;-2.094;2024-03-02T12:36:22;98198.83;;;12.56;37.90
73242;BME280;65659;49.234;-2.094;2024-03-02T12:38:47;98189.70;;;12.41;38.60
73242;BME280;65659;49.234;-2.094;2024-03-02T12:41:15;98187.91;;;12.44;38.35
73242;BME280;65659;49.234;-2.094;2024-03-02T12:43:39;98184.59;;;12.66;38.58
73242;BME280;65659;49.234;-2.094;2024-03-02T12:46:05;98177.92;;;12.62;39.05
73242;BME280;65659;49.234;-2.094;2024-03-02T12:48:30;98177.55;;;12.76;38.23